createdAt,value
2023-03-03T00:01:20.498Z,7.25
2023-03-03T00:03:48.985Z,7.24
2023-03-03T00:06:19.231Z,7.24
2023-03-03T00:08:47.578Z,7.13
2023-03-03T00:11:15.945Z,7.13
2023-03-03T00:13:48.541Z,7.04
2023-03-03T00:16:23.173Z,6.95
2023-03-03T00:18:52.531Z,6.90
2023-03-03T00:21:29.131Z,6.86
2023-03-03T00:24:13.680Z,6.86
2023-03-03T00:26:43.531Z,6.73
2023-03-03T00:29:33.143Z,6.71
2023-03-03T00:32:17.747Z,6.62
2023-03-03T00:34:46.491Z,6.59
2023-03-03T00:37:29.271Z,6.59
2023-03-03T00:40:15.648Z,6.43
2023-03-03T00:42:48.200Z,6.37
2023-03-03T00:45:33.026Z,6.35
2023-03-03T00:48:17.362Z,6.34
2023-03-03T00:50:45.997Z,6.20
2023-03-03T00:53:18.310Z,6.24
2023-03-03T00:55:47.792Z,6.17
2023-03-03T00:58:16.248Z,6.13
2023-03-03T01:00:44.436Z,6.09
2023-03-03T01:03:16.958Z,6.12
2023-03-03T01:05:45.120Z,6.08
2023-03-03T01:08:15.802Z,6.09
2023-03-03T01:13:39.083Z,6.09
2023-03-03T01:16:08.779Z,6.10
2023-03-03T01:18:37.000Z,6.12
2023-03-03T01:21:05.695Z,6.08
2023-03-03T01:23:35.827Z,6.02
2023-03-03T01:26:04.096Z,6.11
2023-03-03T01:28:32.234Z,6.10
2023-03-03T01:31:04.657Z,6.12
2023-03-03T01:33:33.296Z,6.14
2023-03-03T01:36:01.360Z,6.13
2023-03-03T01:38:29.764Z,6.12
2023-03-03T01:41:01.114Z,6.14
2023-03-03T01:43:31.635Z,6.17
2023-03-03T01:46:35.438Z,6.19
2023-03-03T01:49:08.394Z,6.22
2023-03-03T01:51:41.131Z,6.27
2023-03-03T01:54:16.629Z,6.25
2023-03-03T01:56:46.420Z,6.27
2023-03-03T01:59:20.083Z,6.26
2023-03-03T02:01:49.787Z,6.20
2023-03-03T02:04:18.702Z,6.28
2023-03-03T02:06:52.805Z,6.26
2023-03-03T02:09:30.727Z,6.22
2023-03-03T02:12:05.579Z,6.22
2023-03-03T02:14:33.737Z,6.18
2023-03-03T02:17:01.901Z,6.13
2023-03-03T02:19:38.028Z,6.11
2023-03-03T02:22:06.079Z,6.08
2023-03-03T02:24:41.299Z,6.07
2023-03-03T02:27:10.642Z,6.00
2023-03-03T02:29:38.785Z,5.94
2023-03-03T02:32:07.753Z,5.87
2023-03-03T02:34:47.418Z,5.84
2023-03-03T02:37:15.899Z,5.86
2023-03-03T02:39:45.232Z,5.84
2023-03-03T02:42:21.793Z,5.83
2023-03-03T02:44:50.045Z,5.69
2023-03-03T02:47:18.308Z,5.80
2023-03-03T02:49:47.208Z,5.79
2023-03-03T02:52:18.151Z,5.76
2023-03-03T02:54:46.974Z,5.77
2023-03-03T02:57:16.528Z,5.74
2023-03-03T02:59:44.769Z,5.71
2023-03-03T03:02:15.053Z,5.72
2023-03-03T03:04:43.251Z,5.70
2023-03-03T03:07:11.968Z,5.59
2023-03-03T03:09:40.655Z,5.61
2023-03-03T03:12:08.652Z,5.54
2023-03-03T03:14:38.195Z,5.57
2023-03-03T03:17:06.898Z,5.53
2023-03-03T03:19:34.929Z,5.53
2023-03-03T03:22:02.787Z,5.57
2023-03-03T03:24:31.442Z,5.54
2023-03-03T03:26:59.214Z,5.58
2023-03-03T03:29:27.331Z,5.60
2023-03-03T03:31:57.650Z,5.63
2023-03-03T03:34:26.036Z,5.59
2023-03-03T03:36:54.117Z,5.63
2023-03-03T03:39:24.021Z,5.56
2023-03-03T03:41:51.980Z,5.60
2023-03-03T03:44:20.258Z,5.55
2023-03-03T03:46:48.982Z,5.48
2023-03-03T03:49:20.731Z,5.52
2023-03-03T03:51:49.554Z,5.45
2023-03-03T03:54:17.677Z,5.37
2023-03-03T03:56:45.667Z,5.36
2023-03-03T03:59:14.496Z,5.40
2023-03-03T04:01:42.447Z,5.43
2023-03-03T04:04:10.165Z,5.43
2023-03-03T04:06:40.287Z,5.47
2023-03-03T04:09:08.508Z,5.43
2023-03-03T04:11:36.635Z,5.38
2023-03-03T04:14:05.591Z,5.31
2023-03-03T04:16:33.880Z,5.36
2023-03-03T04:19:01.989Z,5.36
2023-03-03T04:21:30.931Z,5.35
2023-03-03T04:24:00.681Z,5.24
2023-03-03T04:26:28.506Z,5.28
2023-03-03T04:28:56.990Z,5.12
2023-03-03T04:31:25.756Z,5.11
2023-03-03T04:33:53.978Z,5.03
2023-03-03T04:36:23.114Z,5.09
2023-03-03T04:38:51.579Z,4.99
2023-03-03T04:41:21.144Z,4.74
2023-03-03T04:43:49.640Z,4.89
2023-03-03T04:46:17.716Z,4.73
2023-03-03T04:48:45.952Z,4.60
2023-03-03T04:51:15.697Z,4.63
2023-03-03T04:53:43.496Z,4.57
2023-03-03T04:56:11.323Z,4.66
2023-03-03T04:58:41.670Z,4.60
2023-03-03T05:01:13.877Z,4.58
2023-03-03T05:03:42.902Z,4.53
2023-03-03T05:06:10.756Z,4.43
2023-03-03T05:08:38.997Z,4.24
2023-03-03T05:11:08.066Z,4.24
2023-03-03T05:13:36.232Z,4.34
2023-03-03T05:16:06.304Z,4.35
2023-03-03T05:18:34.633Z,4.38
2023-03-03T05:21:02.746Z,4.39
2023-03-03T05:23:31.447Z,4.20
2023-03-03T05:26:00.219Z,4.29
2023-03-03T05:28:28.511Z,4.42
2023-03-03T05:30:56.648Z,4.48
2023-03-03T05:33:27.001Z,4.41
2023-03-03T05:35:55.919Z,4.45
2023-03-03T05:38:24.499Z,4.50
2023-03-03T05:40:53.778Z,4.61
2023-03-03T05:43:22.001Z,4.67
2023-03-03T05:45:55.962Z,4.52
2023-03-03T05:48:25.972Z,4.65
2023-03-03T05:50:53.954Z,4.64
2023-03-03T05:53:22.215Z,4.49
2023-03-03T05:55:50.111Z,4.56
2023-03-03T05:58:18.065Z,4.54
2023-03-03T06:00:46.916Z,4.60
2023-03-03T06:03:15.016Z,4.62
2023-03-03T06:05:44.377Z,4.48
2023-03-03T06:08:13.237Z,4.13
2023-03-03T06:10:41.220Z,4.15
2023-03-03T06:13:09.230Z,4.07
2023-03-03T06:15:37.478Z,4.29
2023-03-03T06:18:05.573Z,4.28
2023-03-03T06:20:35.422Z,4.36
2023-03-03T06:23:05.291Z,4.21
2023-03-03T06:25:35.667Z,4.25
2023-03-03T06:28:04.084Z,4.23
2023-03-03T06:30:32.229Z,4.39
2023-03-03T06:33:00.232Z,4.44
2023-03-03T06:35:28.170Z,4.44
2023-03-03T06:37:56.688Z,4.52
2023-03-03T06:40:26.075Z,4.49
2023-03-03T06:42:53.890Z,4.47
2023-03-03T06:45:22.462Z,4.59
2023-03-03T06:47:50.861Z,4.50
2023-03-03T06:50:21.473Z,4.60
2023-03-03T06:52:50.069Z,4.64
2023-03-03T06:55:24.570Z,4.63
2023-03-03T06:57:56.484Z,4.56
2023-03-03T07:00:30.821Z,4.45
2023-03-03T07:03:01.948Z,4.44
2023-03-03T07:05:31.164Z,4.27
2023-03-03T07:07:59.175Z,4.29
2023-03-03T07:10:30.244Z,4.25
2023-03-03T07:13:19.550Z,4.02
2023-03-03T07:15:49.313Z,4.24
2023-03-03T07:18:32.707Z,4.28
2023-03-03T07:21:02.368Z,4.38
2023-03-03T07:23:33.055Z,4.28
2023-03-03T07:26:01.028Z,4.21
2023-03-03T07:28:33.452Z,4.21
2023-03-03T07:31:01.481Z,4.21
2023-03-03T07:33:32.900Z,3.56
2023-03-03T07:36:01.698Z,3.60
2023-03-03T07:38:38.407Z,3.64
2023-03-03T07:41:12.254Z,3.71
2023-03-03T07:43:49.702Z,3.89
2023-03-03T07:46:31.630Z,3.99
2023-03-03T07:49:01.221Z,3.92
2023-03-03T07:51:32.142Z,3.93
2023-03-03T07:54:28.759Z,4.07
2023-03-03T07:56:59.165Z,4.25
2023-03-03T07:59:28.749Z,4.33
2023-03-03T08:01:58.962Z,4.03
2023-03-03T08:04:33.133Z,4.29
2023-03-03T08:07:03.364Z,4.38
2023-03-03T08:09:40.576Z,4.44
2023-03-03T08:12:32.988Z,4.30
2023-03-03T08:15:17.838Z,4.29
2023-03-03T08:17:46.200Z,4.33
2023-03-03T08:20:53.445Z,4.36
2023-03-03T08:23:22.157Z,4.25
2023-03-03T08:25:51.530Z,4.08
2023-03-03T08:28:20.338Z,4.21
2023-03-03T08:30:50.366Z,4.29
2023-03-03T08:33:18.463Z,4.31
2023-03-03T08:35:47.053Z,4.37
2023-03-03T08:38:17.353Z,4.30
2023-03-03T08:40:45.427Z,4.45
2023-03-03T08:43:17.050Z,4.49
2023-03-03T08:45:47.139Z,4.40
2023-03-03T08:48:16.307Z,4.45
2023-03-03T08:50:45.044Z,4.51
2023-03-03T08:56:02.719Z,4.48
2023-03-03T08:58:35.413Z,4.12
2023-03-03T09:01:03.448Z,4.29
2023-03-03T09:03:33.088Z,4.46
2023-03-03T09:06:00.755Z,4.46
2023-03-03T09:08:28.446Z,4.39
2023-03-03T09:10:56.693Z,4.47
2023-03-03T09:13:25.879Z,4.58
2023-03-03T09:15:53.646Z,4.45
2023-03-03T09:18:23.813Z,4.12
2023-03-03T09:20:57.352Z,4.26
2023-03-03T09:23:36.261Z,4.35
2023-03-03T09:26:28.046Z,4.34
2023-03-03T09:29:18.613Z,4.22
2023-03-03T09:31:49.585Z,4.31
2023-03-03T09:34:22.363Z,4.45
2023-03-03T09:36:52.533Z,4.38
2023-03-03T09:39:21.741Z,4.47
2023-03-03T09:42:21.855Z,4.60
2023-03-03T09:45:27.992Z,4.62
2023-03-03T09:48:49.421Z,4.49
2023-03-03T09:51:36.502Z,4.47
2023-03-03T09:54:19.692Z,4.31
2023-03-03T09:56:54.160Z,4.48
2023-03-03T09:59:32.370Z,4.19
2023-03-03T10:02:17.056Z,4.43
2023-03-03T10:05:07.071Z,4.43
2023-03-03T10:07:44.890Z,4.25
2023-03-03T10:10:24.899Z,4.40
2023-03-03T10:13:07.742Z,4.44
2023-03-03T10:15:45.415Z,4.30
2023-03-03T10:18:25.882Z,4.35
2023-03-03T10:21:12.294Z,4.57
2023-03-03T10:23:56.295Z,4.44
2023-03-03T10:26:46.471Z,4.64
2023-03-03T10:29:30.437Z,4.55
2023-03-03T10:32:19.170Z,4.48
2023-03-03T10:35:00.770Z,4.61
2023-03-03T10:37:40.452Z,4.50
2023-03-03T10:40:14.209Z,4.46
2023-03-03T10:43:31.164Z,4.51
2023-03-03T10:46:21.744Z,4.55
2023-03-03T10:49:16.426Z,4.43
2023-03-03T10:52:08.634Z,4.55
2023-03-03T10:54:58.766Z,4.62
2023-03-03T10:57:36.232Z,4.62
2023-03-03T11:00:22.683Z,4.65
2023-03-03T11:03:37.523Z,4.54
2023-03-03T11:06:12.832Z,4.79
2023-03-03T11:08:45.235Z,4.61
2023-03-03T11:11:25.589Z,4.67
2023-03-03T11:14:00.975Z,4.68
2023-03-03T11:16:47.858Z,4.86
2023-03-03T11:19:52.709Z,4.74
2023-03-03T11:22:35.174Z,5.12
2023-03-03T11:25:16.485Z,5.15
2023-03-03T11:28:05.323Z,5.20
2023-03-03T11:30:46.211Z,5.13
2023-03-03T11:33:20.364Z,5.16
2023-03-03T11:36:01.132Z,5.22
2023-03-03T11:38:46.583Z,5.22
2023-03-03T11:41:24.422Z,5.38
2023-03-03T11:43:56.192Z,5.34
2023-03-03T11:46:27.851Z,5.34
2023-03-03T11:49:01.359Z,5.30
2023-03-03T11:51:42.131Z,5.55
2023-03-03T11:54:17.116Z,5.66
2023-03-03T11:56:46.789Z,5.79
2023-03-03T11:59:38.031Z,5.84
2023-03-03T12:02:22.487Z,5.99
2023-03-03T12:04:55.041Z,6.11
2023-03-03T12:07:35.169Z,6.21
2023-03-03T12:10:24.837Z,6.12
2023-03-03T12:12:57.720Z,6.21
2023-03-03T12:15:33.221Z,6.16
2023-03-03T12:18:24.317Z,6.08
2023-03-03T12:21:05.378Z,6.21
2023-03-03T12:23:53.346Z,6.37
2023-03-03T12:26:28.537Z,6.45
2023-03-03T12:29:00.194Z,6.52
2023-03-03T12:31:39.458Z,6.50
2023-03-03T12:34:16.848Z,6.61
2023-03-03T12:36:58.156Z,6.55
2023-03-03T12:39:39.275Z,6.67
2023-03-03T12:42:16.138Z,6.66
2023-03-03T12:44:52.075Z,6.71
2023-03-03T12:47:26.614Z,6.62
2023-03-03T12:50:08.299Z,6.79
2023-03-03T12:52:47.655Z,6.80
2023-03-03T12:55:26.712Z,6.97
2023-03-03T12:58:04.557Z,7.09
2023-03-03T13:00:44.731Z,7.13
2023-03-03T13:03:30.340Z,7.20
2023-03-03T13:06:05.939Z,7.31
2023-03-03T13:08:50.693Z,7.26
2023-03-03T13:11:34.047Z,7.29
2023-03-03T13:14:12.881Z,7.26
2023-03-03T13:16:45.685Z,7.20
2023-03-03T13:19:20.622Z,7.35
2023-03-03T13:21:51.950Z,7.42
2023-03-03T13:24:26.510Z,7.50
2023-03-03T13:27:00.799Z,7.60
2023-03-03T13:29:36.196Z,7.64
2023-03-03T13:32:13.331Z,7.70
2023-03-03T13:34:51.072Z,7.74
2023-03-03T13:37:22.821Z,7.83
2023-03-03T13:40:00.232Z,7.84
2023-03-03T13:42:36.181Z,7.98
2023-03-03T13:45:15.220Z,7.99
2023-03-03T13:47:49.940Z,8.01
2023-03-03T13:50:24.341Z,8.00
2023-03-03T13:53:06.544Z,7.99
2023-03-03T13:55:41.184Z,8.08
2023-03-03T13:58:19.723Z,8.07
2023-03-03T14:01:01.880Z,8.11
2023-03-03T14:03:55.205Z,8.23
2023-03-03T14:06:25.041Z,8.24
2023-03-03T14:09:21.134Z,8.35
2023-03-03T14:11:57.557Z,8.38
2023-03-03T14:14:37.678Z,8.37
2023-03-03T14:17:14.011Z,8.39
2023-03-03T14:19:45.820Z,8.37
2023-03-03T14:22:23.791Z,8.48
2023-03-03T14:25:00.795Z,8.58
2023-03-03T14:27:34.976Z,8.36
2023-03-03T14:30:29.002Z,8.43
2023-03-03T14:33:02.631Z,8.56
2023-03-03T14:35:33.416Z,8.67
2023-03-03T14:38:03.896Z,8.57
2023-03-03T14:40:33.413Z,8.62
2023-03-03T14:43:03.768Z,8.57
2023-03-03T14:45:36.819Z,8.44
2023-03-03T14:48:17.222Z,8.67
2023-03-03T14:50:51.190Z,8.65
2023-03-03T14:53:33.393Z,8.62
2023-03-03T14:56:17.926Z,8.70
2023-03-03T14:58:46.394Z,8.68
2023-03-03T15:01:24.324Z,8.77
2023-03-03T15:04:01.683Z,8.63
2023-03-03T15:06:34.606Z,8.77
2023-03-03T15:09:29.967Z,8.68
2023-03-03T15:11:59.576Z,8.69
2023-03-03T15:14:33.145Z,8.52
2023-03-03T15:17:21.465Z,8.67
2023-03-03T15:20:00.133Z,8.73
2023-03-03T15:22:44.365Z,8.76
2023-03-03T15:25:21.110Z,8.80
2023-03-03T15:27:53.422Z,8.91
2023-03-03T15:30:30.634Z,8.86
2023-03-03T15:33:06.057Z,8.96
2023-03-03T15:35:45.749Z,8.92
2023-03-03T15:38:19.697Z,9.06
2023-03-03T15:40:51.500Z,9.08
2023-03-03T15:43:27.760Z,8.94
2023-03-03T15:46:09.974Z,9.12
2023-03-03T15:48:52.924Z,9.18
2023-03-03T15:51:46.079Z,9.25
2023-03-03T15:54:37.022Z,9.21
2023-03-03T15:57:13.428Z,9.25
2023-03-03T16:00:16.057Z,9.37
2023-03-03T16:02:53.680Z,9.27
2023-03-03T16:05:25.353Z,9.32
2023-03-03T16:08:06.471Z,9.25
2023-03-03T16:10:45.250Z,9.25
2023-03-03T16:13:24.207Z,9.26
2023-03-03T16:16:08.245Z,9.37
2023-03-03T16:18:50.553Z,9.38
2023-03-03T16:21:31.119Z,9.39
2023-03-03T16:24:03.718Z,9.36
2023-03-03T16:26:43.356Z,9.39
2023-03-03T16:29:21.117Z,9.42
2023-03-03T16:31:54.402Z,9.49
2023-03-03T16:34:31.647Z,9.51
2023-03-03T16:37:08.209Z,9.51
2023-03-03T16:42:40.321Z,9.45
2023-03-03T16:45:25.340Z,9.34
2023-03-03T16:48:20.912Z,9.38
2023-03-03T16:51:00.328Z,9.44
2023-03-03T16:53:44.330Z,9.32
2023-03-03T16:56:18.999Z,9.34
2023-03-03T16:58:57.744Z,9.36
2023-03-03T17:01:34.681Z,9.36
2023-03-03T17:04:03.722Z,9.31
2023-03-03T17:06:41.511Z,9.36
2023-03-03T17:09:33.059Z,9.31
2023-03-03T17:12:15.084Z,9.30
2023-03-03T17:15:05.516Z,9.35
2023-03-03T17:17:43.092Z,9.37
2023-03-03T17:20:29.078Z,9.36
2023-03-03T17:23:12.290Z,9.36
2023-03-03T17:25:46.548Z,9.39
2023-03-03T17:28:27.750Z,9.40
2023-03-03T17:31:01.498Z,9.41
2023-03-03T17:33:44.796Z,9.43
2023-03-03T17:36:35.797Z,9.45
2023-03-03T17:39:20.385Z,9.44
2023-03-03T17:41:59.219Z,9.43
2023-03-03T17:44:35.552Z,9.43
2023-03-03T17:47:06.931Z,9.42
2023-03-03T17:50:05.668Z,9.41
2023-03-03T17:52:50.712Z,9.40
2023-03-03T17:55:36.888Z,9.37
2023-03-03T17:58:35.717Z,9.34
2023-03-03T18:01:15.633Z,9.32
2023-03-03T18:04:00.127Z,9.21
2023-03-03T18:06:44.124Z,9.22
2023-03-03T18:09:28.126Z,9.17
2023-03-03T18:12:05.337Z,9.07
2023-03-03T18:15:07.357Z,9.00
2023-03-03T18:17:41.597Z,9.01
2023-03-03T18:20:48.498Z,9.04
2023-03-03T18:23:43.593Z,9.04
2023-03-03T18:26:41.332Z,9.07
2023-03-03T18:29:21.213Z,9.07
2023-03-03T18:32:03.798Z,9.07
2023-03-03T18:34:37.878Z,9.09
2023-03-03T18:37:10.623Z,9.08
2023-03-03T18:39:46.093Z,9.06
2023-03-03T18:42:38.912Z,9.04
2023-03-03T18:45:50.432Z,9.00
2023-03-03T18:48:22.028Z,8.97
2023-03-03T18:50:53.110Z,8.96
2023-03-03T18:53:28.463Z,8.96
2023-03-03T18:55:58.468Z,8.88
2023-03-03T18:58:33.962Z,8.80
2023-03-03T19:01:12.842Z,8.80
2023-03-03T19:04:10.209Z,8.74
2023-03-03T19:06:58.082Z,8.73
2023-03-03T19:09:53.025Z,8.81
2023-03-03T19:12:52.630Z,8.82
2023-03-03T19:15:38.961Z,8.88
2023-03-03T19:18:16.467Z,8.92
2023-03-03T19:20:48.076Z,8.94
2023-03-03T19:23:18.534Z,8.96
2023-03-03T19:25:46.260Z,8.95
2023-03-03T19:28:37.258Z,9.00
2023-03-03T19:31:12.448Z,9.04
2023-03-03T19:33:54.578Z,9.07
2023-03-03T19:36:40.661Z,9.10
2023-03-03T19:39:53.787Z,8.97
2023-03-03T19:42:39.959Z,9.02
2023-03-03T19:45:19.709Z,9.07
2023-03-03T19:47:53.089Z,9.08
2023-03-03T19:50:32.918Z,9.07
2023-03-03T19:53:08.684Z,9.13
2023-03-03T19:55:49.667Z,9.15
2023-03-03T19:58:30.305Z,9.16
2023-03-03T20:01:08.568Z,9.18
2023-03-03T20:04:06.667Z,9.20
2023-03-03T20:06:45.069Z,9.21
2023-03-03T20:09:24.790Z,9.20
2023-03-03T20:12:04.323Z,9.18
2023-03-03T20:14:45.876Z,9.24
2023-03-03T20:17:44.608Z,9.23
2023-03-03T20:20:37.968Z,9.24
2023-03-03T20:23:21.627Z,9.24
2023-03-03T20:25:57.405Z,9.24
2023-03-03T20:28:55.141Z,9.23
2023-03-03T20:31:28.698Z,9.22
2023-03-03T20:34:10.741Z,9.20
2023-03-03T20:36:50.331Z,9.21
2023-03-03T20:39:22.993Z,9.22
2023-03-03T20:42:05.974Z,9.24
2023-03-03T20:44:50.109Z,9.17
2023-03-03T20:47:28.637Z,9.18
2023-03-03T20:50:19.957Z,9.17
2023-03-03T20:52:59.338Z,9.14
2023-03-03T20:55:39.849Z,9.13
2023-03-03T20:58:16.411Z,9.16
2023-03-03T21:00:53.067Z,9.01
2023-03-03T21:03:28.678Z,9.10
2023-03-03T21:06:00.166Z,9.11
2023-03-03T21:08:46.483Z,9.17
2023-03-03T21:11:16.357Z,9.08
2023-03-03T21:13:46.338Z,9.10
2023-03-03T21:16:30.406Z,9.02
2023-03-03T21:18:58.825Z,9.08
2023-03-03T21:21:28.110Z,9.10
2023-03-03T21:23:55.963Z,9.12
2023-03-03T21:26:54.449Z,9.13
2023-03-03T21:29:26.212Z,9.18
2023-03-03T21:31:56.358Z,9.20
2023-03-03T21:34:29.685Z,9.22
2023-03-03T21:36:58.309Z,9.10
2023-03-03T21:39:31.834Z,9.16
2023-03-03T21:42:02.719Z,9.16
2023-03-03T21:44:37.679Z,9.21
2023-03-03T21:47:07.353Z,9.20
2023-03-03T21:49:34.835Z,9.13
2023-03-03T21:52:03.002Z,9.22
2023-03-03T21:54:30.663Z,9.09
2023-03-03T21:56:58.351Z,9.12
2023-03-03T21:59:26.280Z,9.16
2023-03-03T22:01:55.283Z,9.17
2023-03-03T22:04:23.095Z,9.18
2023-03-03T22:06:52.865Z,9.14
2023-03-03T22:09:21.059Z,9.06
2023-03-03T22:11:48.964Z,9.13
2023-03-03T22:14:16.912Z,9.08
2023-03-03T22:16:44.592Z,9.15
2023-03-03T22:19:13.646Z,8.99
2023-03-03T22:21:42.090Z,9.02
2023-03-03T22:24:10.221Z,9.02
2023-03-03T22:26:37.872Z,9.05
2023-03-03T22:29:06.658Z,9.10
2023-03-03T22:31:34.569Z,8.95
2023-03-03T22:34:02.257Z,8.92
2023-03-03T22:36:32.176Z,8.93
2023-03-03T22:39:00.850Z,8.92
2023-03-03T22:41:28.511Z,8.94
2023-03-03T22:43:56.564Z,8.92
2023-03-03T22:46:24.639Z,8.91
2023-03-03T22:48:52.323Z,8.96
2023-03-03T22:51:22.536Z,8.92
2023-03-03T22:53:51.556Z,8.96
2023-03-03T22:56:19.207Z,8.96
2023-03-03T22:58:47.219Z,8.96
2023-03-03T23:01:14.874Z,8.97
2023-03-03T23:03:42.561Z,8.78
2023-03-03T23:06:10.806Z,8.71
2023-03-03T23:08:38.511Z,8.81
2023-03-03T23:11:07.655Z,8.86
2023-03-03T23:13:36.712Z,8.88
2023-03-03T23:16:04.691Z,8.89
2023-03-03T23:18:32.540Z,8.81
2023-03-03T23:21:00.789Z,8.79
2023-03-03T23:23:29.588Z,8.84
2023-03-03T23:25:57.817Z,8.85
2023-03-03T23:28:27.345Z,8.86
2023-03-03T23:30:54.974Z,8.86
2023-03-03T23:33:22.751Z,8.73
2023-03-03T23:35:50.963Z,8.76
2023-03-03T23:38:18.616Z,8.73
2023-03-03T23:40:47.597Z,8.80
2023-03-03T23:43:15.978Z,8.81
2023-03-03T23:45:44.990Z,8.83
2023-03-03T23:48:12.698Z,8.80
2023-03-03T23:50:41.133Z,8.74
2023-03-03T23:53:09.336Z,8.72
2023-03-03T23:55:37.615Z,8.76
2023-03-03T23:58:07.229Z,8.68
